createdAt,value
2019-03-29T00:01:29.620Z,8
2019-03-29T00:11:27.342Z,8
2019-03-29T00:21:27.089Z,7
2019-03-29T00:31:41.219Z,7
2019-03-29T00:41:31.489Z,7
2019-03-29T00:51:29.887Z,7
2019-03-29T01:01:33.189Z,7
2019-03-29T01:11:31.673Z,7
2019-03-29T01:21:27.391Z,7
2019-03-29T01:31:30.419Z,6
2019-03-29T01:41:28.299Z,6
2019-03-29T01:51:37.264Z,6
2019-03-29T02:01:45.189Z,6
2019-03-29T02:11:27.992Z,6
2019-03-29T02:21:28.327Z,6
2019-03-29T02:31:29.578Z,6
2019-03-29T02:41:29.140Z,6
2019-03-29T02:51:27.663Z,6
2019-03-29T03:01:27.240Z,6
2019-03-29T03:11:28.265Z,6
2019-03-29T03:21:27.136Z,6
2019-03-29T03:31:28.045Z,5
2019-03-29T03:41:29.440Z,6
2019-03-29T03:51:26.721Z,6
2019-03-29T04:01:27.445Z,6
2019-03-29T04:11:27.218Z,5
2019-03-29T04:21:26.472Z,5
2019-03-29T04:31:27.369Z,5
2019-03-29T04:41:26.544Z,5
2019-03-29T04:51:28.897Z,5
2019-03-29T05:01:29.289Z,5
2019-03-29T05:11:30.915Z,5
2019-03-29T05:21:31.407Z,5
2019-03-29T05:31:27.744Z,5
2019-03-29T05:41:27.252Z,5
2019-03-29T05:51:26.906Z,5
2019-03-29T06:01:27.789Z,6
2019-03-29T06:11:27.504Z,5
2019-03-29T06:21:27.319Z,6
2019-03-29T06:31:29.172Z,6
2019-03-29T06:41:28.303Z,6
2019-03-29T06:51:28.194Z,6
2019-03-29T07:01:27.980Z,6
2019-03-29T07:11:27.490Z,6
2019-03-29T07:21:27.247Z,6
2019-03-29T07:31:28.655Z,7
2019-03-29T07:41:33.722Z,7
2019-03-29T07:51:27.588Z,7
2019-03-29T08:01:27.185Z,7
2019-03-29T08:11:29.469Z,7
2019-03-29T08:21:27.526Z,8
2019-03-29T08:31:28.875Z,8
2019-03-29T08:41:28.535Z,8
2019-03-29T08:51:27.545Z,9
2019-03-29T09:01:27.576Z,10
2019-03-29T09:11:28.322Z,9
2019-03-29T09:21:27.187Z,10
2019-03-29T09:31:27.928Z,10
2019-03-29T09:41:28.011Z,11
2019-03-29T09:51:27.604Z,11
2019-03-29T10:01:28.571Z,11
2019-03-29T10:11:27.614Z,11
2019-03-29T10:21:28.127Z,12
2019-03-29T10:31:33.822Z,12
2019-03-29T10:41:27.779Z,12
2019-03-29T10:51:28.182Z,11
2019-03-29T11:01:27.962Z,12
2019-03-29T11:11:28.077Z,12
2019-03-29T11:21:29.108Z,13
2019-03-29T11:31:29.752Z,13
2019-03-29T11:41:28.580Z,13
2019-03-29T11:51:27.630Z,13
2019-03-29T12:01:27.544Z,13
2019-03-29T12:11:27.362Z,13
2019-03-29T12:21:28.781Z,13
2019-03-29T12:31:28.072Z,14
2019-03-29T12:41:27.750Z,13
2019-03-29T12:51:28.186Z,14
2019-03-29T13:01:41.170Z,14
2019-03-29T13:11:28.424Z,14
2019-03-29T13:21:27.724Z,14
2019-03-29T13:31:27.490Z,14
2019-03-29T13:41:27.357Z,14
2019-03-29T13:51:28.248Z,14
2019-03-29T14:01:28.435Z,15
2019-03-29T14:11:27.497Z,15
2019-03-29T14:21:26.542Z,15
2019-03-29T14:31:27.924Z,15
2019-03-29T14:41:28.480Z,15
2019-03-29T14:51:31.491Z,15
2019-03-29T15:01:30.068Z,15
2019-03-29T15:11:28.410Z,16
2019-03-29T15:21:28.302Z,16
2019-03-29T15:31:28.261Z,16
2019-03-29T15:41:28.303Z,16
2019-03-29T15:51:27.356Z,16
2019-03-29T16:01:27.933Z,15
2019-03-29T16:11:27.743Z,15
2019-03-29T16:21:29.391Z,15
2019-03-29T16:31:28.240Z,15
2019-03-29T16:41:28.087Z,15
2019-03-29T16:51:28.261Z,15
2019-03-29T17:01:27.997Z,14
2019-03-29T17:11:29.125Z,14
2019-03-29T17:21:27.651Z,15
2019-03-29T17:31:29.419Z,15
2019-03-29T17:41:27.652Z,14
2019-03-29T17:51:28.531Z,14
2019-03-29T18:01:27.830Z,14
2019-03-29T18:11:27.468Z,13
2019-03-29T18:21:28.503Z,12
2019-03-29T18:31:27.322Z,13
2019-03-29T18:41:27.402Z,13
2019-03-29T18:51:27.298Z,13
2019-03-29T19:01:28.724Z,13
2019-03-29T19:11:27.396Z,12
2019-03-29T19:21:27.701Z,12
2019-03-29T19:31:28.263Z,12
2019-03-29T19:41:28.647Z,12
2019-03-29T19:51:28.468Z,12
2019-03-29T20:01:28.659Z,11
2019-03-29T20:11:27.490Z,12
2019-03-29T20:21:27.617Z,12
2019-03-29T20:31:27.345Z,11
2019-03-29T20:41:29.564Z,11
2019-03-29T20:51:27.256Z,11
2019-03-29T21:01:27.902Z,11
2019-03-29T21:11:27.589Z,11
2019-03-29T21:21:27.745Z,11
2019-03-29T21:31:28.074Z,11
2019-03-29T21:41:28.099Z,11
2019-03-29T21:51:29.933Z,11
2019-03-29T22:01:28.835Z,11
2019-03-29T22:11:27.506Z,10
2019-03-29T22:21:30.113Z,11
2019-03-29T22:31:28.100Z,10
2019-03-29T22:41:30.878Z,10
2019-03-29T22:51:28.006Z,9
2019-03-29T23:01:27.931Z,10
2019-03-29T23:11:28.911Z,9
2019-03-29T23:21:27.762Z,9
2019-03-29T23:31:29.131Z,10
2019-03-29T23:41:27.778Z,9
2019-03-29T23:51:27.247Z,9
